sensor_id;sensor_type;location;lat;lon;timestamp;temperature;humidity
9941;DHT22;5009;50.656;7.188;2022-09-01T00:01:45;19.30;88.50
9941;DHT22;5009;50.656;7.188;2022-09-01T00:04:13;19.20;88.60
9941;DHT22;5009;50.656;7.188;2022-09-01T00:06:40;19.10;88.90
9941;DHT22;5009;50.656;7.188;2022-09-01T00:09:10;19.10;89.50
9941;DHT22;5009;50.656;7.188;2022-09-01T00:11:37;19.10;89.60
9941;DHT22;5009;50.656;7.188;2022-09-01T00:14:04;19.00;90.00
9941;DHT22;5009;50.656;7.188;2022-09-01T00:16:31;18.90;90.10
9941;DHT22;5009;50.656;7.188;2022-09-01T00:18:57;19.00;90.30
9941;DHT22;5009;50.656;7.188;2022-09-01T00:21:25;18.90;90.50
9941;DHT22;5009;50.656;7.188;2022-09-01T00:23:51;18.80;90.60
9941;DHT22;5009;50.656;7.188;2022-09-01T00:26:17;18.80;90.80
9941;DHT22;5009;50.656;7.188;2022-09-01T00:28:42;18.80;91.00
9941;DHT22;5009;50.656;7.188;2022-09-01T00:31:09;18.70;91.20
9941;DHT22;5009;50.656;7.188;2022-09-01T00:33:39;18.70;91.30
9941;DHT22;5009;50.656;7.188;2022-09-01T00:36:05;18.60;91.60
9941;DHT22;5009;50.656;7.188;2022-09-01T00:38:32;18.60;91.90
9941;DHT22;5009;50.656;7.188;2022-09-01T00:40:58;18.50;92.10
9941;DHT22;5009;50.656;7.188;2022-09-01T00:43:52;18.50;92.30
9941;DHT22;5009;50.656;7.188;2022-09-01T00:46:22;18.40;92.50
9941;DHT22;5009;50.656;7.188;2022-09-01T00:48:53;18.40;92.50
9941;DHT22;5009;50.656;7.188;2022-09-01T00:51:20;18.40;92.70
9941;DHT22;5009;50.656;7.188;2022-09-01T00:53:46;18.40;92.70
9941;DHT22;5009;50.656;7.188;2022-09-01T00:56:12;18.40;92.80
9941;DHT22;5009;50.656;7.188;2022-09-01T00:58:38;18.30;92.90
9941;DHT22;5009;50.656;7.188;2022-09-01T01:01:06;18.30;93.30
9941;DHT22;5009;50.656;7.188;2022-09-01T01:03:33;18.30;93.90
9941;DHT22;5009;50.656;7.188;2022-09-01T01:06:02;18.30;93.90
9941;DHT22;5009;50.656;7.188;2022-09-01T01:08:34;18.30;93.80
9941;DHT22;5009;50.656;7.188;2022-09-01T01:11:03;18.30;94.00
9941;DHT22;5009;50.656;7.188;2022-09-01T01:13:29;18.30;94.20
9941;DHT22;5009;50.656;7.188;2022-09-01T01:16:01;18.30;94.20
9941;DHT22;5009;50.656;7.188;2022-09-01T01:18:27;18.40;94.00
9941;DHT22;5009;50.656;7.188;2022-09-01T01:21:07;18.30;93.80
9941;DHT22;5009;50.656;7.188;2022-09-01T01:26:46;18.40;94.20
9941;DHT22;5009;50.656;7.188;2022-09-01T01:29:12;18.40;94.10
9941;DHT22;5009;50.656;7.188;2022-09-01T01:31:38;18.40;94.30
9941;DHT22;5009;50.656;7.188;2022-09-01T01:34:04;18.40;94.50
9941;DHT22;5009;50.656;7.188;2022-09-01T01:36:36;18.30;94.60
9941;DHT22;5009;50.656;7.188;2022-09-01T01:39:14;18.30;95.00
9941;DHT22;5009;50.656;7.188;2022-09-01T01:41:42;18.30;95.10
9941;DHT22;5009;50.656;7.188;2022-09-01T01:44:10;18.20;95.00
9941;DHT22;5009;50.656;7.188;2022-09-01T01:46:43;18.20;95.00
9941;DHT22;5009;50.656;7.188;2022-09-01T01:49:11;18.20;95.20
9941;DHT22;5009;50.656;7.188;2022-09-01T01:51:43;18.20;95.60
9941;DHT22;5009;50.656;7.188;2022-09-01T01:54:09;18.10;96.00
9941;DHT22;5009;50.656;7.188;2022-09-01T01:56:35;18.10;96.20
9941;DHT22;5009;50.656;7.188;2022-09-01T01:59:04;18.00;96.20
9941;DHT22;5009;50.656;7.188;2022-09-01T02:01:29;18.00;96.60
9941;DHT22;5009;50.656;7.188;2022-09-01T02:03:57;17.90;97.10
9941;DHT22;5009;50.656;7.188;2022-09-01T02:06:25;17.80;97.60
9941;DHT22;5009;50.656;7.188;2022-09-01T02:08:53;17.80;97.80
9941;DHT22;5009;50.656;7.188;2022-09-01T02:11:22;17.80;98.00
9941;DHT22;5009;50.656;7.188;2022-09-01T02:13:48;17.70;98.10
9941;DHT22;5009;50.656;7.188;2022-09-01T02:16:14;17.70;98.20
9941;DHT22;5009;50.656;7.188;2022-09-01T02:18:43;17.60;98.50
9941;DHT22;5009;50.656;7.188;2022-09-01T02:21:13;17.60;98.60
9941;DHT22;5009;50.656;7.188;2022-09-01T02:23:44;17.50;99.00
9941;DHT22;5009;50.656;7.188;2022-09-01T02:26:10;17.50;99.40
9941;DHT22;5009;50.656;7.188;2022-09-01T02:28:38;17.40;99.90
9941;DHT22;5009;50.656;7.188;2022-09-01T02:31:08;17.30;99.90
9941;DHT22;5009;50.656;7.188;2022-09-01T02:33:35;17.20;99.90
9941;DHT22;5009;50.656;7.188;2022-09-01T02:36:07;17.20;99.90
9941;DHT22;5009;50.656;7.188;2022-09-01T02:38:33;17.20;99.90
9941;DHT22;5009;50.656;7.188;2022-09-01T02:41:01;17.20;99.90
9941;DHT22;5009;50.656;7.188;2022-09-01T02:43:28;17.20;99.90
9941;DHT22;5009;50.656;7.188;2022-09-01T02:45:57;17.10;99.90
9941;DHT22;5009;50.656;7.188;2022-09-01T02:48:32;17.10;99.90
9941;DHT22;5009;50.656;7.188;2022-09-01T02:51:05;17.00;99.90
9941;DHT22;5009;50.656;7.188;2022-09-01T02:53:32;17.00;99.90
9941;DHT22;5009;50.656;7.188;2022-09-01T02:56:02;16.90;99.90
9941;DHT22;5009;50.656;7.188;2022-09-01T02:58:30;16.90;99.90
9941;DHT22;5009;50.656;7.188;2022-09-01T03:01:09;16.80;99.90
9941;DHT22;5009;50.656;7.188;2022-09-01T03:03:35;16.80;99.90
9941;DHT22;5009;50.656;7.188;2022-09-01T03:06:02;16.70;99.90
9941;DHT22;5009;50.656;7.188;2022-09-01T03:08:29;16.70;99.90
9941;DHT22;5009;50.656;7.188;2022-09-01T03:11:00;16.60;99.90
9941;DHT22;5009;50.656;7.188;2022-09-01T03:13:27;16.60;99.90
9941;DHT22;5009;50.656;7.188;2022-09-01T03:15:53;16.60;99.90
9941;DHT22;5009;50.656;7.188;2022-09-01T03:18:19;16.50;99.90
9941;DHT22;5009;50.656;7.188;2022-09-01T03:20:46;16.50;99.90
9941;DHT22;5009;50.656;7.188;2022-09-01T03:23:14;16.40;99.90
9941;DHT22;5009;50.656;7.188;2022-09-01T03:25:42;16.40;99.90
9941;DHT22;5009;50.656;7.188;2022-09-01T03:28:08;16.30;99.90
9941;DHT22;5009;50.656;7.188;2022-09-01T03:30:38;16.30;99.90
9941;DHT22;5009;50.656;7.188;2022-09-01T03:33:05;16.30;99.90
9941;DHT22;5009;50.656;7.188;2022-09-01T03:35:31;16.20;99.90
9941;DHT22;5009;50.656;7.188;2022-09-01T03:37:58;16.10;99.90
9941;DHT22;5009;50.656;7.188;2022-09-01T03:40:26;16.10;99.90
9941;DHT22;5009;50.656;7.188;2022-09-01T03:42:53;16.00;99.90
9941;DHT22;5009;50.656;7.188;2022-09-01T03:45:20;16.00;99.90
9941;DHT22;5009;50.656;7.188;2022-09-01T03:47:45;15.90;99.90
9941;DHT22;5009;50.656;7.188;2022-09-01T03:50:15;15.90;99.90
9941;DHT22;5009;50.656;7.188;2022-09-01T03:52:54;15.80;99.90
9941;DHT22;5009;50.656;7.188;2022-09-01T03:55:25;15.80;99.90
9941;DHT22;5009;50.656;7.188;2022-09-01T03:57:53;15.80;99.90
9941;DHT22;5009;50.656;7.188;2022-09-01T04:00:21;15.70;99.90
9941;DHT22;5009;50.656;7.188;2022-09-01T04:02:52;15.70;99.90
9941;DHT22;5009;50.656;7.188;2022-09-01T04:05:23;15.60;99.90
9941;DHT22;5009;50.656;7.188;2022-09-01T04:07:54;15.60;99.90
9941;DHT22;5009;50.656;7.188;2022-09-01T04:10:20;15.50;99.90
9941;DHT22;5009;50.656;7.188;2022-09-01T04:12:47;15.50;99.90
9941;DHT22;5009;50.656;7.188;2022-09-01T04:15:15;15.40;99.90
9941;DHT22;5009;50.656;7.188;2022-09-01T04:17:42;15.30;99.90
9941;DHT22;5009;50.656;7.188;2022-09-01T04:20:26;15.40;99.90
9941;DHT22;5009;50.656;7.188;2022-09-01T04:22:51;15.30;99.90
9941;DHT22;5009;50.656;7.188;2022-09-01T04:25:19;15.30;99.90
9941;DHT22;5009;50.656;7.188;2022-09-01T04:27:52;15.20;99.90
9941;DHT22;5009;50.656;7.188;2022-09-01T04:30:22;15.10;99.90
9941;DHT22;5009;50.656;7.188;2022-09-01T04:32:51;15.10;99.90
9941;DHT22;5009;50.656;7.188;2022-09-01T04:35:20;15.10;99.90
9941;DHT22;5009;50.656;7.188;2022-09-01T04:37:57;15.00;99.90
9941;DHT22;5009;50.656;7.188;2022-09-01T04:40:24;15.00;99.90
9941;DHT22;5009;50.656;7.188;2022-09-01T04:42:49;15.00;99.90
9941;DHT22;5009;50.656;7.188;2022-09-01T04:45:15;15.00;99.90
9941;DHT22;5009;50.656;7.188;2022-09-01T04:47:44;14.90;99.90
9941;DHT22;5009;50.656;7.188;2022-09-01T04:50:11;14.90;99.90
9941;DHT22;5009;50.656;7.188;2022-09-01T04:52:45;14.90;99.90
9941;DHT22;5009;50.656;7.188;2022-09-01T04:55:13;14.90;99.90
9941;DHT22;5009;50.656;7.188;2022-09-01T04:57:43;14.90;99.90
9941;DHT22;5009;50.656;7.188;2022-09-01T05:00:13;14.90;99.90
9941;DHT22;5009;50.656;7.188;2022-09-01T05:02:47;14.80;99.90
9941;DHT22;5009;50.656;7.188;2022-09-01T05:05:13;14.90;99.90
9941;DHT22;5009;50.656;7.188;2022-09-01T05:07:38;14.90;99.90
9941;DHT22;5009;50.656;7.188;2022-09-01T05:10:04;14.80;99.90
9941;DHT22;5009;50.656;7.188;2022-09-01T05:12:31;14.70;99.90
9941;DHT22;5009;50.656;7.188;2022-09-01T05:14:56;14.80;99.90
9941;DHT22;5009;50.656;7.188;2022-09-01T05:17:22;14.80;99.90
9941;DHT22;5009;50.656;7.188;2022-09-01T05:19:50;14.80;99.90
9941;DHT22;5009;50.656;7.188;2022-09-01T05:22:16;14.80;99.90
9941;DHT22;5009;50.656;7.188;2022-09-01T05:24:46;14.90;99.90
9941;DHT22;5009;50.656;7.188;2022-09-01T05:27:12;14.90;99.90
9941;DHT22;5009;50.656;7.188;2022-09-01T05:29:39;14.90;99.90
9941;DHT22;5009;50.656;7.188;2022-09-01T05:32:06;14.90;99.90
9941;DHT22;5009;50.656;7.188;2022-09-01T05:34:33;15.00;99.90
9941;DHT22;5009;50.656;7.188;2022-09-01T05:37:02;15.00;99.90
9941;DHT22;5009;50.656;7.188;2022-09-01T05:39:27;15.10;99.90
9941;DHT22;5009;50.656;7.188;2022-09-01T05:41:53;15.10;99.90
9941;DHT22;5009;50.656;7.188;2022-09-01T05:44:20;15.20;99.90
9941;DHT22;5009;50.656;7.188;2022-09-01T05:46:47;15.40;99.90
9941;DHT22;5009;50.656;7.188;2022-09-01T05:49:14;15.50;99.90
9941;DHT22;5009;50.656;7.188;2022-09-01T05:51:42;15.70;99.90
9941;DHT22;5009;50.656;7.188;2022-09-01T05:54:09;16.00;99.90
9941;DHT22;5009;50.656;7.188;2022-09-01T05:56:37;16.30;99.90
9941;DHT22;5009;50.656;7.188;2022-09-01T05:59:04;16.60;99.90
9941;DHT22;5009;50.656;7.188;2022-09-01T06:01:30;17.00;99.90
9941;DHT22;5009;50.656;7.188;2022-09-01T06:03:59;17.60;99.90
9941;DHT22;5009;50.656;7.188;2022-09-01T06:06:30;18.30;99.90
9941;DHT22;5009;50.656;7.188;2022-09-01T06:09:00;19.10;97.50
9941;DHT22;5009;50.656;7.188;2022-09-01T06:11:26;19.70;95.70
9941;DHT22;5009;50.656;7.188;2022-09-01T06:13:58;20.10;94.50
9941;DHT22;5009;50.656;7.188;2022-09-01T06:16:25;20.50;93.70
9941;DHT22;5009;50.656;7.188;2022-09-01T06:18:52;21.00;93.00
9941;DHT22;5009;50.656;7.188;2022-09-01T06:21:19;21.70;92.10
9941;DHT22;5009;50.656;7.188;2022-09-01T06:23:46;22.80;90.10
9941;DHT22;5009;50.656;7.188;2022-09-01T06:26:30;23.90;85.40
9941;DHT22;5009;50.656;7.188;2022-09-01T06:28:59;24.50;81.80
9941;DHT22;5009;50.656;7.188;2022-09-01T06:31:28;24.70;79.70
9941;DHT22;5009;50.656;7.188;2022-09-01T06:33:59;24.70;79.00
9941;DHT22;5009;50.656;7.188;2022-09-01T06:36:25;24.50;78.00
9941;DHT22;5009;50.656;7.188;2022-09-01T06:38:52;24.20;78.80
9941;DHT22;5009;50.656;7.188;2022-09-01T06:41:21;24.00;79.30
9941;DHT22;5009;50.656;7.188;2022-09-01T06:43:48;23.80;80.70
9941;DHT22;5009;50.656;7.188;2022-09-01T06:46:15;24.30;80.30
9941;DHT22;5009;50.656;7.188;2022-09-01T06:48:42;25.20;77.90
9941;DHT22;5009;50.656;7.188;2022-09-01T06:51:13;25.60;75.40
9941;DHT22;5009;50.656;7.188;2022-09-01T06:53:40;25.80;73.20
9941;DHT22;5009;50.656;7.188;2022-09-01T06:56:06;26.80;70.60
9941;DHT22;5009;50.656;7.188;2022-09-01T06:58:41;28.00;65.80
9941;DHT22;5009;50.656;7.188;2022-09-01T07:01:10;29.30;59.90
9941;DHT22;5009;50.656;7.188;2022-09-01T07:03:46;30.50;57.10
9941;DHT22;5009;50.656;7.188;2022-09-01T07:06:12;31.60;54.40
9941;DHT22;5009;50.656;7.188;2022-09-01T07:08:38;32.10;51.90
9941;DHT22;5009;50.656;7.188;2022-09-01T07:11:06;32.30;49.80
9941;DHT22;5009;50.656;7.188;2022-09-01T07:13:33;32.50;49.20
9941;DHT22;5009;50.656;7.188;2022-09-01T07:16:01;32.70;48.00
9941;DHT22;5009;50.656;7.188;2022-09-01T07:18:29;33.10;47.60
9941;DHT22;5009;50.656;7.188;2022-09-01T07:20:56;33.30;46.20
9941;DHT22;5009;50.656;7.188;2022-09-01T07:23:21;34.60;45.50
9941;DHT22;5009;50.656;7.188;2022-09-01T07:25:50;35.60;44.00
9941;DHT22;5009;50.656;7.188;2022-09-01T07:28:20;36.20;43.00
9941;DHT22;5009;50.656;7.188;2022-09-01T07:30:49;37.00;42.00
9941;DHT22;5009;50.656;7.188;2022-09-01T07:33:16;37.20;41.00
9941;DHT22;5009;50.656;7.188;2022-09-01T07:35:50;37.40;40.40
9941;DHT22;5009;50.656;7.188;2022-09-01T07:38:18;37.20;40.30
9941;DHT22;5009;50.656;7.188;2022-09-01T07:40:45;36.10;40.10
9941;DHT22;5009;50.656;7.188;2022-09-01T07:43:20;35.50;40.50
9941;DHT22;5009;50.656;7.188;2022-09-01T07:45:48;34.70;40.90
9941;DHT22;5009;50.656;7.188;2022-09-01T07:48:18;33.70;41.40
9941;DHT22;5009;50.656;7.188;2022-09-01T07:50:45;32.60;42.20
9941;DHT22;5009;50.656;7.188;2022-09-01T07:53:15;31.80;42.70
9941;DHT22;5009;50.656;7.188;2022-09-01T07:55:45;31.20;43.20
9941;DHT22;5009;50.656;7.188;2022-09-01T07:58:12;30.40;43.20
9941;DHT22;5009;50.656;7.188;2022-09-01T08:00:41;30.20;43.80
9941;DHT22;5009;50.656;7.188;2022-09-01T08:03:12;30.20;44.40
9941;DHT22;5009;50.656;7.188;2022-09-01T08:05:38;30.40;44.20
9941;DHT22;5009;50.656;7.188;2022-09-01T08:08:05;30.30;44.20
9941;DHT22;5009;50.656;7.188;2022-09-01T08:10:31;31.40;44.00
9941;DHT22;5009;50.656;7.188;2022-09-01T08:12:57;32.50;43.40
9941;DHT22;5009;50.656;7.188;2022-09-01T08:15:23;33.50;42.30
9941;DHT22;5009;50.656;7.188;2022-09-01T08:17:49;34.60;41.90
9941;DHT22;5009;50.656;7.188;2022-09-01T08:20:15;35.70;41.30
9941;DHT22;5009;50.656;7.188;2022-09-01T08:22:40;35.30;40.20
9941;DHT22;5009;50.656;7.188;2022-09-01T08:25:07;35.60;40.60
9941;DHT22;5009;50.656;7.188;2022-09-01T08:27:35;36.00;40.50
9941;DHT22;5009;50.656;7.188;2022-09-01T08:30:04;35.60;40.10
9941;DHT22;5009;50.656;7.188;2022-09-01T08:32:32;34.80;40.20
9941;DHT22;5009;50.656;7.188;2022-09-01T08:34:58;33.60;40.20
9941;DHT22;5009;50.656;7.188;2022-09-01T08:37:23;33.10;40.90
9941;DHT22;5009;50.656;7.188;2022-09-01T08:39:50;32.60;40.90
9941;DHT22;5009;50.656;7.188;2022-09-01T08:42:42;32.20;41.50
9941;DHT22;5009;50.656;7.188;2022-09-01T08:45:14;31.30;41.10
9941;DHT22;5009;50.656;7.188;2022-09-01T08:47:44;30.80;41.60
9941;DHT22;5009;50.656;7.188;2022-09-01T08:50:11;30.20;42.10
9941;DHT22;5009;50.656;7.188;2022-09-01T08:52:44;29.50;42.50
9941;DHT22;5009;50.656;7.188;2022-09-01T08:55:17;29.30;42.70
9941;DHT22;5009;50.656;7.188;2022-09-01T08:57:46;28.90;43.20
9941;DHT22;5009;50.656;7.188;2022-09-01T09:00:17;28.70;43.20
9941;DHT22;5009;50.656;7.188;2022-09-01T09:06:12;29.00;43.70
9941;DHT22;5009;50.656;7.188;2022-09-01T09:08:55;28.50;44.20
9941;DHT22;5009;50.656;7.188;2022-09-01T09:16:56;27.60;44.90
9941;DHT22;5009;50.656;7.188;2022-09-01T09:19:36;27.80;45.20
9941;DHT22;5009;50.656;7.188;2022-09-01T09:22:10;27.40;45.30
9941;DHT22;5009;50.656;7.188;2022-09-01T09:24:52;27.20;45.80
9941;DHT22;5009;50.656;7.188;2022-09-01T09:27:35;27.00;45.90
9941;DHT22;5009;50.656;7.188;2022-09-01T09:30:09;27.30;46.20
9941;DHT22;5009;50.656;7.188;2022-09-01T09:33:05;26.80;46.30
9941;DHT22;5009;50.656;7.188;2022-09-01T09:35:41;26.50;46.50
9941;DHT22;5009;50.656;7.188;2022-09-01T09:41:07;25.30;48.30
9941;DHT22;5009;50.656;7.188;2022-09-01T09:43:44;25.60;48.80
9941;DHT22;5009;50.656;7.188;2022-09-01T09:46:38;25.90;48.70
9941;DHT22;5009;50.656;7.188;2022-09-01T09:51:53;26.10;48.70
9941;DHT22;5009;50.656;7.188;2022-09-01T09:54:26;25.90;48.40
9941;DHT22;5009;50.656;7.188;2022-09-01T09:57:11;25.90;48.90
9941;DHT22;5009;50.656;7.188;2022-09-01T09:59:57;25.80;48.70
9941;DHT22;5009;50.656;7.188;2022-09-01T10:04:53;25.80;49.80
9941;DHT22;5009;50.656;7.188;2022-09-01T10:10:05;26.20;49.70
9941;DHT22;5009;50.656;7.188;2022-09-01T10:12:31;26.10;49.60
9941;DHT22;5009;50.656;7.188;2022-09-01T10:15:04;26.00;49.20
9941;DHT22;5009;50.656;7.188;2022-09-01T10:17:37;25.70;49.60
9941;DHT22;5009;50.656;7.188;2022-09-01T10:20:17;25.70;49.70
9941;DHT22;5009;50.656;7.188;2022-09-01T10:22:45;25.70;49.80
9941;DHT22;5009;50.656;7.188;2022-09-01T10:25:17;25.60;50.10
9941;DHT22;5009;50.656;7.188;2022-09-01T10:27:49;25.50;49.80
9941;DHT22;5009;50.656;7.188;2022-09-01T10:30:20;25.50;50.00
9941;DHT22;5009;50.656;7.188;2022-09-01T10:32:54;25.60;50.10
9941;DHT22;5009;50.656;7.188;2022-09-01T10:35:25;25.40;50.30
9941;DHT22;5009;50.656;7.188;2022-09-01T10:37:51;25.40;50.10
9941;DHT22;5009;50.656;7.188;2022-09-01T10:42:54;25.30;50.50
9941;DHT22;5009;50.656;7.188;2022-09-01T10:45:33;25.20;50.90
9941;DHT22;5009;50.656;7.188;2022-09-01T10:50:46;25.60;51.10
9941;DHT22;5009;50.656;7.188;2022-09-01T10:56:07;25.80;50.00
9941;DHT22;5009;50.656;7.188;2022-09-01T11:04:07;25.70;49.80
9941;DHT22;5009;50.656;7.188;2022-09-01T11:07:03;25.70;49.80
9941;DHT22;5009;50.656;7.188;2022-09-01T11:09:38;25.70;49.70
9941;DHT22;5009;50.656;7.188;2022-09-01T11:20:35;25.90;50.30
9941;DHT22;5009;50.656;7.188;2022-09-01T11:23:11;26.00;50.30
9941;DHT22;5009;50.656;7.188;2022-09-01T11:25:43;26.00;50.20
9941;DHT22;5009;50.656;7.188;2022-09-01T11:33:49;25.70;50.50
9941;DHT22;5009;50.656;7.188;2022-09-01T11:41:24;25.30;51.10
9941;DHT22;5009;50.656;7.188;2022-09-01T11:43:54;25.20;51.10
9941;DHT22;5009;50.656;7.188;2022-09-01T11:46:27;25.30;51.30
9941;DHT22;5009;50.656;7.188;2022-09-01T11:48:54;25.30;51.40
9941;DHT22;5009;50.656;7.188;2022-09-01T11:51:20;25.20;51.30
9941;DHT22;5009;50.656;7.188;2022-09-01T11:53:46;25.20;51.10
9941;DHT22;5009;50.656;7.188;2022-09-01T11:56:24;25.10;51.20
9941;DHT22;5009;50.656;7.188;2022-09-01T11:58:50;24.80;51.50
9941;DHT22;5009;50.656;7.188;2022-09-01T12:01:37;24.50;51.90
9941;DHT22;5009;50.656;7.188;2022-09-01T12:04:25;24.70;52.10
9941;DHT22;5009;50.656;7.188;2022-09-01T12:06:54;24.90;52.00
9941;DHT22;5009;50.656;7.188;2022-09-01T12:09:20;25.00;52.00
9941;DHT22;5009;50.656;7.188;2022-09-01T12:11:46;25.10;51.90
9941;DHT22;5009;50.656;7.188;2022-09-01T12:14:20;25.20;51.70
9941;DHT22;5009;50.656;7.188;2022-09-01T12:16:59;25.10;51.60
9941;DHT22;5009;50.656;7.188;2022-09-01T12:19:28;25.30;51.60
9941;DHT22;5009;50.656;7.188;2022-09-01T12:24:32;25.60;51.10
9941;DHT22;5009;50.656;7.188;2022-09-01T12:26:59;25.60;50.90
9941;DHT22;5009;50.656;7.188;2022-09-01T12:29:25;25.60;50.90
9941;DHT22;5009;50.656;7.188;2022-09-01T12:31:52;25.60;50.70
9941;DHT22;5009;50.656;7.188;2022-09-01T12:34:42;25.50;50.80
9941;DHT22;5009;50.656;7.188;2022-09-01T12:37:23;25.40;51.00
9941;DHT22;5009;50.656;7.188;2022-09-01T12:39:51;25.50;50.60
9941;DHT22;5009;50.656;7.188;2022-09-01T12:44:48;25.10;50.70
9941;DHT22;5009;50.656;7.188;2022-09-01T12:52:52;25.20;50.60
9941;DHT22;5009;50.656;7.188;2022-09-01T12:55:28;25.00;50.30
9941;DHT22;5009;50.656;7.188;2022-09-01T12:57:56;25.10;50.60
9941;DHT22;5009;50.656;7.188;2022-09-01T13:00:28;25.10;50.40
9941;DHT22;5009;50.656;7.188;2022-09-01T13:03:06;25.00;50.30
9941;DHT22;5009;50.656;7.188;2022-09-01T13:05:37;24.90;50.10
9941;DHT22;5009;50.656;7.188;2022-09-01T13:08:07;24.80;50.20
9941;DHT22;5009;50.656;7.188;2022-09-01T13:10:38;24.80;50.40
9941;DHT22;5009;50.656;7.188;2022-09-01T13:13:06;24.70;50.30
9941;DHT22;5009;50.656;7.188;2022-09-01T13:15:33;24.80;50.50
9941;DHT22;5009;50.656;7.188;2022-09-01T13:17:59;24.80;50.10
9941;DHT22;5009;50.656;7.188;2022-09-01T13:20:24;24.90;50.10
9941;DHT22;5009;50.656;7.188;2022-09-01T13:22:50;25.00;50.30
9941;DHT22;5009;50.656;7.188;2022-09-01T13:25:18;25.10;50.30
9941;DHT22;5009;50.656;7.188;2022-09-01T13:27:45;25.20;49.90
9941;DHT22;5009;50.656;7.188;2022-09-01T13:30:13;25.20;49.90
9941;DHT22;5009;50.656;7.188;2022-09-01T13:32:39;25.20;49.80
9941;DHT22;5009;50.656;7.188;2022-09-01T13:35:05;25.20;49.10
9941;DHT22;5009;50.656;7.188;2022-09-01T13:37:31;25.30;49.40
9941;DHT22;5009;50.656;7.188;2022-09-01T13:39:57;25.40;49.00
9941;DHT22;5009;50.656;7.188;2022-09-01T13:42:22;25.30;48.60
9941;DHT22;5009;50.656;7.188;2022-09-01T13:44:48;25.50;48.80
9941;DHT22;5009;50.656;7.188;2022-09-01T13:47:13;25.50;48.50
9941;DHT22;5009;50.656;7.188;2022-09-01T13:49:39;25.50;48.20
9941;DHT22;5009;50.656;7.188;2022-09-01T13:52:04;25.60;48.30
9941;DHT22;5009;50.656;7.188;2022-09-01T13:54:30;25.60;48.00
9941;DHT22;5009;50.656;7.188;2022-09-01T13:56:56;25.60;47.70
9941;DHT22;5009;50.656;7.188;2022-09-01T13:59:21;25.60;47.90
9941;DHT22;5009;50.656;7.188;2022-09-01T14:01:47;25.60;47.50
9941;DHT22;5009;50.656;7.188;2022-09-01T14:04:12;25.50;47.50
9941;DHT22;5009;50.656;7.188;2022-09-01T14:06:42;25.20;47.40
9941;DHT22;5009;50.656;7.188;2022-09-01T14:09:10;25.20;47.80
9941;DHT22;5009;50.656;7.188;2022-09-01T14:11:35;25.00;47.70
9941;DHT22;5009;50.656;7.188;2022-09-01T14:14:01;25.00;47.10
9941;DHT22;5009;50.656;7.188;2022-09-01T14:16:27;25.00;47.30
9941;DHT22;5009;50.656;7.188;2022-09-01T14:18:52;25.00;47.60
9941;DHT22;5009;50.656;7.188;2022-09-01T14:21:18;25.10;47.40
9941;DHT22;5009;50.656;7.188;2022-09-01T14:23:44;25.10;47.40
9941;DHT22;5009;50.656;7.188;2022-09-01T14:26:14;25.20;47.40
9941;DHT22;5009;50.656;7.188;2022-09-01T14:28:41;25.30;47.60
9941;DHT22;5009;50.656;7.188;2022-09-01T14:31:11;25.40;47.20
9941;DHT22;5009;50.656;7.188;2022-09-01T14:33:38;25.50;47.00
9941;DHT22;5009;50.656;7.188;2022-09-01T14:36:06;25.50;46.80
9941;DHT22;5009;50.656;7.188;2022-09-01T14:38:32;25.50;46.70
9941;DHT22;5009;50.656;7.188;2022-09-01T14:41:00;25.40;46.30
9941;DHT22;5009;50.656;7.188;2022-09-01T14:43:26;25.40;46.50
9941;DHT22;5009;50.656;7.188;2022-09-01T14:46:12;25.50;46.60
9941;DHT22;5009;50.656;7.188;2022-09-01T14:48:39;25.40;46.60
9941;DHT22;5009;50.656;7.188;2022-09-01T14:51:06;25.40;46.80
9941;DHT22;5009;50.656;7.188;2022-09-01T14:53:32;25.30;46.30
9941;DHT22;5009;50.656;7.188;2022-09-01T14:55:59;25.30;45.80
9941;DHT22;5009;50.656;7.188;2022-09-01T14:58:26;25.40;45.50
9941;DHT22;5009;50.656;7.188;2022-09-01T15:00:53;25.40;45.00
9941;DHT22;5009;50.656;7.188;2022-09-01T15:03:24;25.40;44.30
9941;DHT22;5009;50.656;7.188;2022-09-01T15:05:53;25.40;44.00
9941;DHT22;5009;50.656;7.188;2022-09-01T15:08:19;25.50;44.30
9941;DHT22;5009;50.656;7.188;2022-09-01T15:10:45;25.50;44.40
9941;DHT22;5009;50.656;7.188;2022-09-01T15:13:11;25.60;44.20
9941;DHT22;5009;50.656;7.188;2022-09-01T15:15:38;25.70;44.20
9941;DHT22;5009;50.656;7.188;2022-09-01T15:18:04;25.70;44.00
9941;DHT22;5009;50.656;7.188;2022-09-01T15:20:30;25.70;43.80
9941;DHT22;5009;50.656;7.188;2022-09-01T15:23:24;25.70;44.30
9941;DHT22;5009;50.656;7.188;2022-09-01T15:25:52;25.80;44.70
9941;DHT22;5009;50.656;7.188;2022-09-01T15:28:18;25.90;44.80
9941;DHT22;5009;50.656;7.188;2022-09-01T15:30:43;25.90;44.70
9941;DHT22;5009;50.656;7.188;2022-09-01T15:33:11;26.00;44.70
9941;DHT22;5009;50.656;7.188;2022-09-01T15:35:37;26.00;44.60
9941;DHT22;5009;50.656;7.188;2022-09-01T15:38:03;25.90;44.20
9941;DHT22;5009;50.656;7.188;2022-09-01T15:40:29;25.90;44.20
9941;DHT22;5009;50.656;7.188;2022-09-01T15:42:55;25.90;44.10
9941;DHT22;5009;50.656;7.188;2022-09-01T15:45:23;25.80;43.70
9941;DHT22;5009;50.656;7.188;2022-09-01T15:47:49;25.80;43.90
9941;DHT22;5009;50.656;7.188;2022-09-01T15:50:19;25.80;43.70
9941;DHT22;5009;50.656;7.188;2022-09-01T15:52:49;25.70;43.60
9941;DHT22;5009;50.656;7.188;2022-09-01T15:55:17;25.60;43.40
9941;DHT22;5009;50.656;7.188;2022-09-01T15:57:42;25.50;43.30
9941;DHT22;5009;50.656;7.188;2022-09-01T16:00:08;25.50;43.80
9941;DHT22;5009;50.656;7.188;2022-09-01T16:02:35;25.50;43.80
9941;DHT22;5009;50.656;7.188;2022-09-01T16:05:01;25.40;43.80
9941;DHT22;5009;50.656;7.188;2022-09-01T16:07:27;25.40;43.90
9941;DHT22;5009;50.656;7.188;2022-09-01T16:09:52;25.30;43.70
9941;DHT22;5009;50.656;7.188;2022-09-01T16:12:23;25.20;43.80
9941;DHT22;5009;50.656;7.188;2022-09-01T16:14:49;25.20;43.90
9941;DHT22;5009;50.656;7.188;2022-09-01T16:20:24;25.10;43.80
9941;DHT22;5009;50.656;7.188;2022-09-01T16:23:30;25.00;43.90
9941;DHT22;5009;50.656;7.188;2022-09-01T16:25:47;25.00;44.10
9941;DHT22;5009;50.656;7.188;2022-09-01T16:28:32;25.00;44.30
9941;DHT22;5009;50.656;7.188;2022-09-01T16:31:15;25.00;44.50
9941;DHT22;5009;50.656;7.188;2022-09-01T16:33:51;24.90;44.30
9941;DHT22;5009;50.656;7.188;2022-09-01T16:36:40;24.90;44.30
9941;DHT22;5009;50.656;7.188;2022-09-01T16:39:18;24.80;44.40
9941;DHT22;5009;50.656;7.188;2022-09-01T16:41:52;24.80;44.50
9941;DHT22;5009;50.656;7.188;2022-09-01T16:44:48;24.80;44.20
9941;DHT22;5009;50.656;7.188;2022-09-01T16:56:02;24.60;43.40
9941;DHT22;5009;50.656;7.188;2022-09-01T16:58:40;24.60;43.10
9941;DHT22;5009;50.656;7.188;2022-09-01T17:01:10;24.60;43.10
9941;DHT22;5009;50.656;7.188;2022-09-01T17:06:27;24.40;43.30
9941;DHT22;5009;50.656;7.188;2022-09-01T17:09:09;24.50;43.30
9941;DHT22;5009;50.656;7.188;2022-09-01T17:11:41;24.50;43.40
9941;DHT22;5009;50.656;7.188;2022-09-01T17:14:15;24.50;43.40
9941;DHT22;5009;50.656;7.188;2022-09-01T17:16:48;24.40;43.50
9941;DHT22;5009;50.656;7.188;2022-09-01T17:19:17;24.40;43.70
9941;DHT22;5009;50.656;7.188;2022-09-01T17:22:05;24.40;43.80
9941;DHT22;5009;50.656;7.188;2022-09-01T17:27:02;24.40;44.30
9941;DHT22;5009;50.656;7.188;2022-09-01T17:29:44;24.40;44.50
9941;DHT22;5009;50.656;7.188;2022-09-01T17:32:43;24.30;44.40
9941;DHT22;5009;50.656;7.188;2022-09-01T17:35:28;24.20;44.30
9941;DHT22;5009;50.656;7.188;2022-09-01T17:43:29;24.10;45.10
9941;DHT22;5009;50.656;7.188;2022-09-01T17:46:33;24.10;45.50
9941;DHT22;5009;50.656;7.188;2022-09-01T17:49:02;23.90;45.60